Terminal Aerodrome Forecast
Issued by NWS Blacksburg, VA

Home | Current Version | Previous Version | Text Only | Print | Product List | Glossary On
Versions: 1 2 3 4 5 6 7 8 9 10 11 12 13 14 15 16 17 18 19 20 21 22 23 24 25 26 27 28 29 30 31 32 33 34
000
FTUS41 KRNK 012343
TAFROA
TAF
KROA 012343Z 0200/0224 28004KT P6SM FEW060 BKN250
     FM020300 30004KT P6SM -SHRA BKN050
     FM020700 28004KT 6SM -SHRA BR SCT025 BKN035
     FM021200 26004KT P6SM VCSH SCT030 BKN040
     FM021900 20008KT 6SM -SHRA BR SCT025 BKN035
     FM022200 22006KT 6SM -SHRA VCTS OVC035CB=

USA.gov is the U.S. government's official web portal to all federal, state and local government web resources and services.